createdAt,value
2019-01-19T00:01:17.456Z,99392.59
2019-01-19T00:03:49.362Z,99388.91
2019-01-19T00:06:02.471Z,99384.92
2019-01-19T00:08:16.509Z,99391.25
2019-01-19T00:10:36.018Z,99386.50
2019-01-19T00:13:17.159Z,99388.61
2019-01-19T00:15:21.869Z,99388.62
2019-01-19T00:17:46.253Z,99384.48
2019-01-19T00:20:25.801Z,99380.48
2019-01-19T00:22:45.354Z,99386.77
2019-01-19T00:24:56.023Z,99378.50
2019-01-19T00:27:09.874Z,99375.19
2019-01-19T00:29:27.660Z,99372.96
2019-01-19T00:31:44.002Z,99376.72
2019-01-19T00:33:54.768Z,99374.02
2019-01-19T00:36:08.478Z,99375.90
2019-01-19T00:38:28.545Z,99378.83
2019-01-19T00:40:36.148Z,99374.92
2019-01-19T00:42:43.869Z,99373.53
2019-01-19T00:45:06.466Z,99376.55
2019-01-19T00:47:26.315Z,99368.27
2019-01-19T00:49:28.094Z,99377.44
2019-01-19T00:51:32.646Z,99369.84
2019-01-19T00:53:43.484Z,99365.25
2019-01-19T00:55:54.183Z,99371.53
2019-01-19T00:58:10.721Z,99367.59
2019-01-19T01:00:33.679Z,99365.73
2019-01-19T01:02:40.789Z,99365.36
2019-01-19T01:04:50.797Z,99364.41
2019-01-19T01:07:20.927Z,99359.08
2019-01-19T01:09:34.398Z,99357.94
2019-01-19T01:11:42.135Z,99361.89
2019-01-19T01:13:58.852Z,99363.94
2019-01-19T01:16:18.465Z,99365.09
2019-01-19T01:18:35.593Z,99364.94
2019-01-19T01:20:40.502Z,99371.55
2019-01-19T01:22:50.981Z,99371.02
2019-01-19T01:24:55.732Z,99368.77
2019-01-19T01:27:03.361Z,99365.72
2019-01-19T01:29:11.032Z,99365.91
2019-01-19T01:31:34.375Z,99365.07
2019-01-19T01:33:48.311Z,99367.03
2019-01-19T01:36:10.881Z,99366.35
2019-01-19T01:38:24.029Z,99371.36
2019-01-19T01:40:28.876Z,99363.00
2019-01-19T01:42:51.470Z,99365.62
2019-01-19T01:45:02.269Z,99370.17
2019-01-19T01:47:09.537Z,99369.02
2019-01-19T01:49:17.062Z,99359.73
2019-01-19T01:51:21.874Z,99366.35
2019-01-19T01:53:32.395Z,99367.55
2019-01-19T01:55:34.852Z,99362.48
2019-01-19T01:57:35.751Z,99360.16
2019-01-19T02:00:00.950Z,99364.75
2019-01-19T02:02:08.107Z,99359.88
2019-01-19T02:04:18.997Z,99353.08
2019-01-19T02:06:35.799Z,99352.44
2019-01-19T02:08:46.755Z,99357.23
2019-01-19T02:11:09.872Z,99362.02
2019-01-19T02:13:22.780Z,99361.63
2019-01-19T02:15:30.334Z,99360.26
2019-01-19T02:18:00.894Z,99354.81
2019-01-19T02:20:24.058Z,99350.78
2019-01-19T02:22:31.823Z,99355.95
2019-01-19T02:25:08.148Z,99353.72
2019-01-19T02:27:12.878Z,99343.99
2019-01-19T02:29:29.345Z,99347.30
2019-01-19T02:31:59.680Z,99345.28
2019-01-19T02:34:13.258Z,99342.72
2019-01-19T02:36:43.867Z,99335.28
2019-01-19T02:38:57.190Z,99334.61
2019-01-19T02:41:13.571Z,99329.86
2019-01-19T02:43:20.972Z,99331.81
2019-01-19T02:45:34.718Z,99330.16
2019-01-19T02:47:58.850Z,99327.39
2019-01-19T02:50:09.407Z,99326.17
2019-01-19T02:52:17.249Z,99320.53
2019-01-19T02:54:55.555Z,99315.51
2019-01-19T02:57:21.676Z,99316.03
2019-01-19T02:59:32.314Z,99309.72
2019-01-19T03:01:52.169Z,99313.33
2019-01-19T03:04:02.888Z,99309.05
2019-01-19T03:06:07.833Z,99306.27
2019-01-19T03:08:30.899Z,99305.67
2019-01-19T03:10:50.330Z,99309.34
2019-01-19T03:13:03.891Z,99304.98
2019-01-19T03:15:31.540Z,99301.98
2019-01-19T03:18:09.385Z,99306.79
2019-01-19T03:20:33.748Z,99299.27
2019-01-19T03:22:47.314Z,99300.17
2019-01-19T03:25:08.674Z,99293.63
2019-01-19T03:27:14.460Z,99294.23
2019-01-19T03:29:25.299Z,99300.85
2019-01-19T03:31:30.008Z,99295.89
2019-01-19T03:33:52.760Z,99303.11
2019-01-19T03:36:04.547Z,99290.02
2019-01-19T03:38:15.320Z,99296.34
2019-01-19T03:40:32.324Z,99290.07
2019-01-19T03:42:39.977Z,99292.30
2019-01-19T03:44:47.151Z,99283.83
2019-01-19T03:47:06.707Z,99280.59
2019-01-19T03:49:23.334Z,99282.78
2019-01-19T03:51:40.096Z,99282.28
2019-01-19T03:53:47.703Z,99279.45
2019-01-19T03:56:07.270Z,99279.47
2019-01-19T03:58:14.886Z,99276.74
2019-01-19T04:00:36.815Z,99277.37
2019-01-19T04:02:53.053Z,99274.10
2019-01-19T04:05:15.813Z,99274.55
2019-01-19T04:07:20.879Z,99264.56
2019-01-19T04:09:40.412Z,99269.22
2019-01-19T04:11:51.143Z,99268.90
2019-01-19T04:14:02.053Z,99265.80
2019-01-19T04:16:16.091Z,99264.69
2019-01-19T04:18:20.708Z,99262.98
2019-01-19T04:20:37.239Z,99264.52
2019-01-19T04:22:38.000Z,99256.27
2019-01-19T04:24:42.717Z,99255.69
2019-01-19T04:26:43.901Z,99256.98
2019-01-19T04:28:44.603Z,99252.38
2019-01-19T04:30:45.332Z,99250.88
2019-01-19T04:32:46.042Z,99254.11
2019-01-19T04:34:47.187Z,99253.34
2019-01-19T04:36:47.861Z,99244.64
2019-01-19T04:38:48.565Z,99250.28
2019-01-19T04:40:49.547Z,99247.34
2019-01-19T04:42:50.223Z,99244.20
2019-01-19T04:44:50.945Z,99247.66
2019-01-19T04:46:52.010Z,99244.34
2019-01-19T04:48:52.968Z,99246.34
2019-01-19T04:50:53.954Z,99243.70
2019-01-19T04:52:54.640Z,99243.31
2019-01-19T04:54:55.304Z,99242.17
2019-01-19T04:56:56.330Z,99241.80
2019-01-19T04:58:57.231Z,99244.88
2019-01-19T05:00:57.879Z,99240.63
2019-01-19T05:02:58.644Z,99241.73
2019-01-19T05:04:59.343Z,99244.70
2019-01-19T05:07:00.366Z,99243.95
2019-01-19T05:09:01.118Z,99246.59
2019-01-19T05:11:02.009Z,99245.18
2019-01-19T05:13:02.784Z,99245.33
2019-01-19T05:15:07.734Z,99241.12
2019-01-19T05:17:08.746Z,99243.52
2019-01-19T05:19:09.691Z,99250.86
2019-01-19T05:21:10.603Z,99249.80
2019-01-19T05:23:11.460Z,99242.59
2019-01-19T05:25:12.176Z,99247.64
2019-01-19T05:27:13.190Z,99243.11
2019-01-19T05:29:14.115Z,99247.97
2019-01-19T05:31:15.102Z,99244.80
2019-01-19T05:33:16.135Z,99250.45
2019-01-19T05:35:16.855Z,99243.41
2019-01-19T05:37:17.866Z,99244.97
2019-01-19T05:39:18.794Z,99243.27
2019-01-19T05:41:19.460Z,99250.15
2019-01-19T05:43:20.454Z,99238.92
2019-01-19T05:45:21.163Z,99244.50
2019-01-19T05:47:22.064Z,99239.62
2019-01-19T05:49:22.846Z,99239.91
2019-01-19T05:51:23.843Z,99238.34
2019-01-19T05:53:24.812Z,99240.36
2019-01-19T05:55:25.725Z,99235.55
2019-01-19T05:57:26.692Z,99247.09
2019-01-19T05:59:27.601Z,99243.48
2019-01-19T06:01:29.312Z,99244.18
2019-01-19T06:03:30.260Z,99245.86
2019-01-19T06:05:30.885Z,99250.22
2019-01-19T06:07:31.622Z,99253.78
2019-01-19T06:09:32.737Z,99253.47
2019-01-19T06:11:33.610Z,99247.41
2019-01-19T06:13:34.275Z,99246.31
2019-01-19T06:15:35.237Z,99251.20
2019-01-19T06:17:35.903Z,99243.87
2019-01-19T06:19:36.651Z,99243.87
2019-01-19T06:21:37.401Z,99243.55
2019-01-19T06:23:38.040Z,99239.86
2019-01-19T06:25:38.718Z,99232.55
2019-01-19T06:27:39.682Z,99237.20
2019-01-19T06:29:40.395Z,99241.54
2019-01-19T06:31:41.359Z,99241.27
2019-01-19T06:33:42.075Z,99236.05
2019-01-19T06:35:43.054Z,99242.76
2019-01-19T06:37:44.393Z,99243.95
2019-01-19T06:39:45.324Z,99240.77
2019-01-19T06:41:45.997Z,99236.55
2019-01-19T06:43:46.905Z,99235.68
2019-01-19T06:45:48.783Z,99237.34
2019-01-19T06:47:52.303Z,99237.72
2019-01-19T06:49:53.059Z,99239.37
2019-01-19T06:51:54.043Z,99237.78
2019-01-19T06:54:01.561Z,99234.46
2019-01-19T06:55:57.559Z,99240.91
2019-01-19T06:57:58.589Z,99242.91
2019-01-19T06:59:59.228Z,99239.26
2019-01-19T07:01:59.946Z,99233.13
2019-01-19T07:04:00.885Z,99236.07
2019-01-19T07:06:01.895Z,99239.50
2019-01-19T07:08:02.843Z,99238.03
2019-01-19T07:10:12.053Z,99236.83
2019-01-19T07:12:12.974Z,99235.05
2019-01-19T07:14:13.667Z,99239.77
2019-01-19T07:16:14.433Z,99239.26
2019-01-19T07:18:15.113Z,99240.66
2019-01-19T07:20:22.515Z,99242.44
2019-01-19T07:22:23.349Z,99244.03
2019-01-19T07:24:24.259Z,99240.27
2019-01-19T07:26:25.157Z,99243.08
2019-01-19T07:28:26.147Z,99246.00
2019-01-19T07:30:27.239Z,99246.58
2019-01-19T07:32:28.984Z,99247.22
2019-01-19T07:34:30.250Z,99244.29
2019-01-19T07:36:31.142Z,99247.48
2019-01-19T07:38:32.220Z,99244.16
2019-01-19T07:40:32.915Z,99250.68
2019-01-19T07:42:34.056Z,99247.94
2019-01-19T07:44:34.949Z,99249.91
2019-01-19T07:46:35.888Z,99251.38
2019-01-19T07:48:39.192Z,99258.84
2019-01-19T07:50:39.937Z,99255.93
2019-01-19T07:52:40.671Z,99252.06
2019-01-19T07:54:41.655Z,99251.11
2019-01-19T07:56:42.535Z,99252.50
2019-01-19T07:58:43.453Z,99246.63
2019-01-19T08:00:44.333Z,99246.98
2019-01-19T08:02:45.025Z,99246.13
2019-01-19T08:04:45.966Z,99258.75
2019-01-19T08:06:46.968Z,99252.75
2019-01-19T08:08:47.696Z,99257.98
2019-01-19T08:10:48.966Z,99254.99
2019-01-19T08:12:49.984Z,99253.77
2019-01-19T08:14:50.780Z,99252.25
2019-01-19T08:16:52.070Z,99264.87
2019-01-19T08:18:53.225Z,99263.52
2019-01-19T08:20:54.423Z,99262.86
2019-01-19T08:22:55.497Z,99268.57
2019-01-19T08:24:56.337Z,99258.23
2019-01-19T08:27:00.174Z,99264.88
2019-01-19T08:29:01.368Z,99270.64
2019-01-19T08:31:02.249Z,99271.23
2019-01-19T08:33:03.573Z,99270.73
2019-01-19T08:35:08.716Z,99263.84
2019-01-19T08:37:09.731Z,99262.04
2019-01-19T08:39:10.473Z,99264.94
2019-01-19T08:41:12.593Z,99259.06
2019-01-19T08:43:13.507Z,99260.36
2019-01-19T08:45:14.312Z,99263.92
2019-01-19T08:47:15.300Z,99259.08
2019-01-19T08:49:17.242Z,99254.65
2019-01-19T08:51:18.356Z,99256.70
2019-01-19T08:53:20.610Z,99251.55
2019-01-19T08:55:21.736Z,99256.45
2019-01-19T08:57:29.006Z,99250.62
2019-01-19T08:59:27.462Z,99255.61
2019-01-19T09:01:28.562Z,99252.86
2019-01-19T09:03:29.607Z,99248.61
2019-01-19T09:05:33.166Z,99250.20
2019-01-19T09:07:34.193Z,99252.83
2019-01-19T09:09:37.177Z,99250.58
2019-01-19T09:11:38.206Z,99247.27
2019-01-19T09:13:39.357Z,99248.24
2019-01-19T09:15:40.268Z,99247.69
2019-01-19T09:17:41.501Z,99254.23
2019-01-19T09:19:42.526Z,99250.17
2019-01-19T09:21:43.558Z,99251.71
2019-01-19T09:23:58.073Z,99248.23
2019-01-19T09:25:49.820Z,99254.25
2019-01-19T09:27:50.991Z,99246.83
2019-01-19T09:29:52.977Z,99246.61
2019-01-19T09:31:54.008Z,99248.17
2019-01-19T09:33:54.814Z,99246.63
2019-01-19T09:35:55.871Z,99247.31
2019-01-19T09:37:56.834Z,99248.83
2019-01-19T09:39:57.894Z,99243.07
2019-01-19T09:41:58.867Z,99246.34
2019-01-19T09:43:59.887Z,99242.87
2019-01-19T09:46:00.791Z,99241.66
2019-01-19T09:48:01.569Z,99243.23
2019-01-19T09:50:06.291Z,99237.67
2019-01-19T09:52:07.018Z,99237.78
2019-01-19T09:54:07.764Z,99241.49
2019-01-19T09:56:08.500Z,99240.23
2019-01-19T09:58:10.438Z,99239.18
2019-01-19T10:00:20.635Z,99240.30
2019-01-19T10:02:21.311Z,99237.27
2019-01-19T10:04:22.283Z,99238.00
2019-01-19T10:06:23.246Z,99235.40
2019-01-19T10:08:24.168Z,99227.92
2019-01-19T10:10:24.978Z,99227.94
2019-01-19T10:12:25.693Z,99228.19
2019-01-19T10:14:26.429Z,99221.91
2019-01-19T10:16:34.968Z,99220.98
2019-01-19T10:18:46.360Z,99218.20
2019-01-19T10:20:47.765Z,99220.09
2019-01-19T10:22:48.734Z,99219.33
2019-01-19T10:24:49.742Z,99215.70
2019-01-19T10:26:50.838Z,99215.92
2019-01-19T10:29:27.136Z,99205.43
2019-01-19T10:31:01.171Z,99207.44
2019-01-19T10:35:50.601Z,99208.55
2019-01-19T10:37:56.692Z,99204.69
2019-01-19T10:39:56.090Z,99206.59
2019-01-19T10:42:03.085Z,99202.88
2019-01-19T10:44:08.652Z,99195.62
2019-01-19T10:49:06.460Z,99186.62
2019-01-19T10:51:07.183Z,99190.19
2019-01-19T10:53:35.104Z,99186.44
2019-01-19T10:58:30.916Z,99181.41
2019-01-19T11:03:15.308Z,99167.17
2019-01-19T11:08:09.236Z,99158.51
2019-01-19T11:10:19.666Z,99153.61
2019-01-19T11:12:21.294Z,99152.77
2019-01-19T11:14:32.615Z,99150.59
2019-01-19T11:16:55.199Z,99147.93
2019-01-19T11:18:29.556Z,99139.03
2019-01-19T11:20:36.567Z,99138.11
2019-01-19T11:27:55.765Z,99126.19
2019-01-19T11:29:58.123Z,99123.98
2019-01-19T11:31:59.358Z,99114.92
2019-01-19T11:34:25.237Z,99118.05
2019-01-19T11:36:36.412Z,99110.44
2019-01-19T11:39:03.197Z,99101.37
2019-01-19T11:41:05.131Z,99094.70
2019-01-19T11:43:11.440Z,99089.98
2019-01-19T11:45:31.122Z,99080.30
2019-01-19T11:47:40.075Z,99072.06
2019-01-19T11:49:46.993Z,99068.56
2019-01-19T12:10:38.431Z,99041.72
2019-01-19T12:12:39.535Z,99047.23
2019-01-19T12:14:40.301Z,99039.49
2019-01-19T12:16:41.484Z,99039.94
2019-01-19T12:18:42.703Z,99039.02
2019-01-19T12:20:44.044Z,99027.99
2019-01-19T12:22:47.709Z,99025.06
2019-01-19T12:24:58.496Z,99019.89
2019-01-19T12:26:57.349Z,99019.28
2019-01-19T12:29:00.910Z,99018.48
2019-01-19T12:32:11.176Z,99017.69
2019-01-19T12:33:45.798Z,99010.05
2019-01-19T12:44:46.083Z,98989.80
2019-01-19T12:46:46.730Z,98991.69
2019-01-19T12:48:47.376Z,98989.13
2019-01-19T12:50:48.257Z,98982.38
2019-01-19T12:52:48.916Z,98987.81
2019-01-19T12:54:49.524Z,98986.70
2019-01-19T12:56:51.227Z,98982.95
2019-01-19T12:58:51.840Z,98978.39
2019-01-19T13:00:52.561Z,98971.97
2019-01-19T13:02:54.357Z,98973.20
2019-01-19T13:04:55.062Z,98967.20
2019-01-19T13:06:55.681Z,98959.92
2019-01-19T13:08:56.318Z,98960.52
2019-01-19T13:11:12.325Z,98957.95
2019-01-19T13:13:13.032Z,98955.47
2019-01-19T13:15:35.233Z,98948.70
2019-01-19T13:17:42.375Z,98947.50
2019-01-19T13:19:50.147Z,98939.60
2019-01-19T13:22:20.566Z,98939.84
2019-01-19T13:24:42.843Z,98941.66
2019-01-19T13:27:03.985Z,98928.66
2019-01-19T13:29:11.562Z,98934.75
2019-01-19T13:31:24.811Z,98923.42
2019-01-19T13:33:52.072Z,98925.19
2019-01-19T13:36:15.360Z,98918.03
2019-01-19T13:38:25.830Z,98914.11
2019-01-19T13:40:39.648Z,98922.83
2019-01-19T13:42:59.843Z,98912.56
2019-01-19T13:45:22.567Z,98906.41
2019-01-19T13:47:32.909Z,98902.41
2019-01-19T13:49:51.923Z,98902.98
2019-01-19T13:51:56.399Z,98890.83
2019-01-19T13:54:06.791Z,98898.53
2019-01-19T13:56:23.025Z,98892.55
2019-01-19T13:58:30.183Z,98884.05
2019-01-19T14:00:49.905Z,98872.45
2019-01-19T14:03:09.658Z,98883.61
2019-01-19T14:05:20.414Z,98869.71
2019-01-19T14:07:36.541Z,98878.09
2019-01-19T14:09:50.170Z,98872.50
2019-01-19T14:12:09.854Z,98865.64
2019-01-19T14:14:23.288Z,98873.31
2019-01-19T14:16:46.289Z,98875.55
2019-01-19T14:18:59.742Z,98869.35
2019-01-19T14:21:07.218Z,98860.22
2019-01-19T14:23:38.510Z,98856.47
2019-01-19T14:25:43.250Z,98886.73
2019-01-19T14:27:47.887Z,98881.11
2019-01-19T14:30:11.172Z,98889.78
2019-01-19T14:32:27.830Z,98871.91
2019-01-19T14:34:32.205Z,98871.83
2019-01-19T14:36:58.252Z,98866.04
2019-01-19T14:39:25.568Z,98884.09
2019-01-19T14:41:36.231Z,98887.63
2019-01-19T14:43:52.692Z,98900.46
2019-01-19T14:46:32.734Z,98895.45
2019-01-19T14:48:59.935Z,98885.12
2019-01-19T14:51:30.783Z,98878.89
2019-01-19T14:53:44.133Z,98882.23
2019-01-19T14:55:51.429Z,98879.03
2019-01-19T14:57:58.708Z,98873.61
2019-01-19T15:00:29.269Z,98873.63
2019-01-19T15:02:39.803Z,98868.02
2019-01-19T15:04:50.500Z,98867.17
2019-01-19T15:06:54.917Z,98866.45
2019-01-19T15:09:17.434Z,98871.26
2019-01-19T15:11:47.896Z,98862.59
2019-01-19T15:14:01.679Z,98864.69
2019-01-19T15:16:41.588Z,98873.70
2019-01-19T15:18:46.366Z,98866.78
2019-01-19T15:21:03.173Z,98868.97
2019-01-19T15:23:24.324Z,98863.58
2019-01-19T15:25:40.594Z,98869.84
2019-01-19T15:28:00.055Z,98871.05
2019-01-19T15:30:07.574Z,98866.25
2019-01-19T15:32:12.208Z,98867.74
2019-01-19T15:34:37.940Z,98877.12
2019-01-19T15:36:57.628Z,98864.92
2019-01-19T15:39:11.063Z,98870.67
2019-01-19T15:41:23.794Z,98866.05
2019-01-19T15:43:44.999Z,98868.67
2019-01-19T15:46:09.224Z,98865.20
2019-01-19T15:48:25.160Z,98869.06
2019-01-19T15:50:52.732Z,98872.80
2019-01-19T15:53:00.043Z,98873.50
2019-01-19T15:55:25.855Z,98876.55
2019-01-19T15:57:30.315Z,98866.77
2019-01-19T15:59:40.057Z,98871.84
2019-01-19T16:01:44.484Z,98870.92
2019-01-19T16:04:03.778Z,98869.56
2019-01-19T16:06:37.472Z,98875.08
2019-01-19T16:08:47.448Z,98870.97
2019-01-19T16:11:08.588Z,98876.06
2019-01-19T16:13:13.264Z,98875.81
2019-01-19T16:15:42.509Z,98875.47
2019-01-19T16:17:53.282Z,98873.46
2019-01-19T16:20:13.076Z,98879.91
2019-01-19T16:22:23.659Z,98876.16
2019-01-19T16:24:33.789Z,98878.21
2019-01-19T16:26:50.314Z,98882.48
2019-01-19T16:28:54.794Z,98876.92
2019-01-19T16:31:10.889Z,98885.19
2019-01-19T16:33:24.349Z,98879.23
2019-01-19T16:35:28.960Z,98884.33
2019-01-19T16:37:36.446Z,98888.37
2019-01-19T16:39:43.728Z,98881.48
2019-01-19T16:41:51.200Z,98883.89
2019-01-19T16:43:58.511Z,98882.97
2019-01-19T16:46:06.186Z,98881.13
2019-01-19T16:48:28.495Z,98882.55
2019-01-19T16:50:38.749Z,98880.34
2019-01-19T16:52:46.451Z,98882.45
2019-01-19T16:54:53.963Z,98877.52
2019-01-19T16:57:10.937Z,98870.88
2019-01-19T16:59:21.320Z,98873.91
2019-01-19T17:01:34.999Z,98874.38
2019-01-19T17:03:55.764Z,98872.56
2019-01-19T17:06:18.075Z,98871.28
2019-01-19T17:08:25.652Z,98873.84
2019-01-19T17:10:30.138Z,98875.95
2019-01-19T17:12:50.143Z,98873.58
2019-01-19T17:15:14.807Z,98878.78
2019-01-19T17:17:46.760Z,98870.03
2019-01-19T17:20:11.154Z,98871.08
2019-01-19T17:22:18.803Z,98875.05
2019-01-19T17:24:39.909Z,98865.92
2019-01-19T17:26:53.114Z,98865.64
2019-01-19T17:28:57.762Z,98872.36
2019-01-19T17:31:08.376Z,98867.95
2019-01-19T17:33:34.125Z,98867.94
2019-01-19T17:35:50.521Z,98871.05
2019-01-19T17:37:55.184Z,98867.97
2019-01-19T17:40:21.148Z,98867.22
2019-01-19T17:43:02.328Z,98866.67
2019-01-19T17:45:09.595Z,98869.81
2019-01-19T17:47:22.796Z,98873.75
2019-01-19T17:49:33.103Z,98868.37
2019-01-19T17:52:03.481Z,98873.69
2019-01-19T17:54:34.047Z,98872.40
2019-01-19T17:56:47.523Z,98869.48
2019-01-19T17:58:54.936Z,98868.84
2019-01-19T18:01:21.566Z,98872.23
2019-01-19T18:03:49.015Z,98868.30
2019-01-19T18:05:59.113Z,98861.62
2019-01-19T18:08:12.734Z,98859.98
2019-01-19T18:10:29.165Z,98866.92
2019-01-19T18:12:39.618Z,98865.55
2019-01-19T18:15:04.184Z,98866.56
2019-01-19T18:17:30.518Z,98866.75
2019-01-19T18:19:41.217Z,98866.84
2019-01-19T18:22:03.964Z,98868.66
2019-01-19T18:24:26.747Z,98868.38
2019-01-19T18:26:52.020Z,98877.53
2019-01-19T18:28:59.537Z,98872.86
2019-01-19T18:31:30.122Z,98875.24
2019-01-19T18:33:40.521Z,98876.44
2019-01-19T18:35:48.140Z,98879.09
2019-01-19T18:37:55.401Z,98880.91
2019-01-19T18:40:14.370Z,98873.97
2019-01-19T18:42:37.222Z,98874.78
2019-01-19T18:45:01.790Z,98871.29
2019-01-19T18:47:26.290Z,98875.02
2019-01-19T18:49:46.474Z,98873.10
2019-01-19T18:51:54.204Z,98867.63
2019-01-19T18:54:20.001Z,98865.72
2019-01-19T18:56:30.516Z,98868.38
2019-01-19T18:58:38.127Z,98862.43
2019-01-19T19:00:51.474Z,98862.33
2019-01-19T19:03:29.723Z,98867.91
2019-01-19T19:05:42.620Z,98857.02
2019-01-19T19:07:50.245Z,98859.75
2019-01-19T19:10:15.609Z,98863.85
2019-01-19T19:12:25.640Z,98861.47
2019-01-19T19:14:46.236Z,98857.67
2019-01-19T19:16:56.466Z,98858.28
2019-01-19T19:19:10.176Z,98861.50
2019-01-19T19:21:32.902Z,98864.31
2019-01-19T19:23:43.052Z,98865.69
2019-01-19T19:25:59.672Z,98869.55
2019-01-19T19:28:29.888Z,98870.35
2019-01-19T19:30:43.179Z,98867.70
2019-01-19T19:32:59.886Z,98867.80
2019-01-19T19:35:22.811Z,98861.59
2019-01-19T19:37:27.213Z,98863.38
2019-01-19T19:39:44.184Z,98866.26
2019-01-19T19:42:00.512Z,98868.91
2019-01-19T19:44:20.318Z,98869.14
2019-01-19T19:46:27.990Z,98863.38
2019-01-19T19:48:35.514Z,98860.10
2019-01-19T19:50:42.623Z,98863.14
2019-01-19T19:52:43.316Z,98859.73
2019-01-19T19:54:49.658Z,98861.69
2019-01-19T19:56:50.372Z,98859.14
2019-01-19T19:58:51.010Z,98858.22
2019-01-19T20:00:51.657Z,98863.77
2019-01-19T20:02:52.268Z,98859.19
2019-01-19T20:04:53.015Z,98857.09
2019-01-19T20:06:53.725Z,98861.58
2019-01-19T20:08:54.333Z,98858.84
2019-01-19T20:10:54.980Z,98857.39
2019-01-19T20:12:55.826Z,98854.27
2019-01-19T20:14:56.763Z,98862.20
2019-01-19T20:16:57.401Z,98859.60
2019-01-19T20:18:58.241Z,98861.84
2019-01-19T20:20:59.151Z,98860.81
2019-01-19T20:23:00.027Z,98853.25
2019-01-19T20:25:00.690Z,98860.58
2019-01-19T20:27:01.319Z,98860.47
2019-01-19T20:29:02.221Z,98862.23
2019-01-19T20:31:02.881Z,98862.97
2019-01-19T20:33:03.507Z,98866.26
2019-01-19T20:35:05.868Z,98861.80
2019-01-19T20:37:06.719Z,98864.91
2019-01-19T20:39:07.729Z,98865.18
2019-01-19T20:41:08.655Z,98866.73
2019-01-19T20:43:09.534Z,98865.91
2019-01-19T20:45:11.168Z,98869.94
2019-01-19T20:47:12.098Z,98862.64
2019-01-19T20:49:12.890Z,98867.89
2019-01-19T20:51:13.494Z,98861.59
2019-01-19T20:53:14.380Z,98867.72
2019-01-19T20:55:15.024Z,98865.59
2019-01-19T20:57:15.652Z,98861.34
2019-01-19T20:59:16.341Z,98857.80
2019-01-19T21:01:17.256Z,98865.47
2019-01-19T21:03:17.948Z,98866.42
2019-01-19T21:05:18.602Z,98865.80
2019-01-19T21:07:19.519Z,98864.06
2019-01-19T21:09:20.242Z,98866.79
2019-01-19T21:11:20.898Z,98866.79
2019-01-19T21:13:21.844Z,98864.81
2019-01-19T21:15:22.763Z,98862.67
2019-01-19T21:17:23.744Z,98866.46
2019-01-19T21:19:24.458Z,98863.13
2019-01-19T21:21:25.387Z,98859.83
2019-01-19T21:23:26.124Z,98862.26
2019-01-19T21:25:26.804Z,98863.16
2019-01-19T21:27:27.674Z,98865.06
2019-01-19T21:29:28.399Z,98857.31
2019-01-19T21:31:29.119Z,98861.02
2019-01-19T21:33:29.863Z,98865.59
2019-01-19T21:35:30.816Z,98858.22
2019-01-19T21:37:31.488Z,98863.04
2019-01-19T21:39:32.359Z,98862.59
2019-01-19T21:41:33.111Z,98860.53
2019-01-19T21:43:33.781Z,98861.52
2019-01-19T21:45:34.433Z,98856.03
2019-01-19T21:47:35.404Z,98861.72
2019-01-19T21:49:36.328Z,98859.83
2019-01-19T21:51:37.016Z,98864.77
2019-01-19T21:53:38.135Z,98863.70
2019-01-19T21:55:38.784Z,98865.35
2019-01-19T21:57:39.638Z,98867.45
2019-01-19T21:59:40.730Z,98862.55
2019-01-19T22:01:41.381Z,98857.48
2019-01-19T22:03:42.056Z,98858.34
2019-01-19T22:05:49.495Z,98860.94
2019-01-19T22:07:45.319Z,98857.77
2019-01-19T22:09:46.179Z,98860.56
2019-01-19T22:11:47.130Z,98854.76
2019-01-19T22:13:47.858Z,98854.97
2019-01-19T22:15:48.674Z,98854.84
2019-01-19T22:17:49.642Z,98857.68
2019-01-19T22:19:50.303Z,98856.45
2019-01-19T22:21:51.257Z,98858.88
2019-01-19T22:23:51.891Z,98860.64
2019-01-19T22:25:52.781Z,98865.21
2019-01-19T22:27:53.431Z,98863.97
2019-01-19T22:29:54.313Z,98862.19
2019-01-19T22:31:55.027Z,98862.48
2019-01-19T22:33:55.728Z,98864.37
2019-01-19T22:35:56.398Z,98865.41
2019-01-19T22:37:57.088Z,98871.52
2019-01-19T22:39:58.270Z,98864.91
2019-01-19T22:41:59.242Z,98867.29
2019-01-19T22:44:00.135Z,98871.94
2019-01-19T22:46:01.049Z,98866.62
2019-01-19T22:48:01.783Z,98869.27
2019-01-19T22:50:05.618Z,98863.91
2019-01-19T22:52:06.527Z,98866.78
2019-01-19T22:54:07.250Z,98865.07
2019-01-19T22:56:08.068Z,98867.13
2019-01-19T22:58:08.692Z,98862.87
2019-01-19T23:00:28.298Z,98863.30
2019-01-19T23:02:29.163Z,98863.23
2019-01-19T23:04:29.818Z,98855.81
2019-01-19T23:06:30.719Z,98858.45
2019-01-19T23:08:31.639Z,98854.55
2019-01-19T23:10:32.324Z,98858.89
2019-01-19T23:12:33.001Z,98857.47
2019-01-19T23:14:33.688Z,98851.77
2019-01-19T23:16:34.309Z,98853.03
2019-01-19T23:18:34.997Z,98852.91
2019-01-19T23:20:35.677Z,98861.91
2019-01-19T23:22:36.333Z,98854.04
2019-01-19T23:24:37.291Z,98853.81
2019-01-19T23:26:38.296Z,98855.02
2019-01-19T23:28:39.257Z,98849.17
2019-01-19T23:30:39.898Z,98844.80
2019-01-19T23:32:40.841Z,98843.53
2019-01-19T23:34:41.499Z,98842.02
2019-01-19T23:36:42.174Z,98847.42
2019-01-19T23:38:43.230Z,98840.44
2019-01-19T23:40:43.892Z,98845.86
2019-01-19T23:42:47.301Z,98842.64
2019-01-19T23:44:47.215Z,98843.70
2019-01-19T23:46:48.056Z,98843.47
2019-01-19T23:48:48.812Z,98846.47
2019-01-19T23:50:49.589Z,98840.53
2019-01-19T23:52:50.237Z,98845.56
2019-01-19T23:54:50.873Z,98845.03
2019-01-19T23:56:51.595Z,98850.66
2019-01-19T23:58:52.206Z,98850.55
